Time;durP1;ratioP1;P1;durP2;ratioP2;P2;SDS_P1;SDS_P2;PMS_P1;PMS_P2;Temp;Humidity;BMP_temperature;BMP_pressure;BME280_temperature;BME280_humidity;BME280_pressure;Samples;Min_cycle;Max_cycle;Signal;HPM_P1;HPM_P2
2022/09/07 00:02:06;;;;;;;8.65;4.25;;;17.00;99.90;;;;;;5004255;28;20798;-62
2022/09/07 00:04:33;;;;;;;4.72;4.28;;;17.00;1.00;;;;;;4980930;28;20661;-62
2022/09/07 00:07:01;;;;;;;5.50;4.57;;;17.10;1.00;;;;;;5006908;28;20198;-62
2022/09/07 00:09:28;;;;;;;5.75;4.60;;;17.10;1.00;;;;;;4969063;28;20214;-62
2022/09/07 00:11:55;;;;;;;4.90;4.40;;;17.10;1.00;;;;;;5010501;28;20226;-62
2022/09/07 00:14:21;;;;;;;7.05;4.30;;;17.00;1.00;;;;;;4993730;28;20198;-62
2022/09/07 00:16:48;;;;;;;7.65;4.70;;;17.00;1.00;;;;;;5008189;28;20202;-59
2022/09/07 00:19:15;;;;;;;5.90;4.30;;;17.30;1.00;;;;;;4994356;28;20206;-60
2022/09/07 00:21:42;;;;;;;5.70;4.90;;;16.90;1.00;;;;;;4999994;28;20736;-60
2022/09/07 00:24:11;;;;;;;4.72;4.30;;;17.00;1.00;;;;;;4991036;28;20209;-60
2022/09/07 00:26:37;;;;;;;5.28;4.00;;;17.10;1.00;;;;;;5001094;28;20279;-60
2022/09/07 00:29:06;;;;;;;4.85;4.38;;;17.10;1.00;;;;;;4982598;28;21166;-60
2022/09/07 00:31:33;;;;;;;4.15;3.75;;;17.30;1.00;;;;;;5000120;28;20202;-60
2022/09/07 00:34:01;;;;;;;5.20;4.70;;;17.10;1.00;;;;;;4995043;28;20210;-61
2022/09/07 00:36:29;;;;;;;5.97;4.30;;;17.00;1.00;;;;;;5000794;28;20240;-60
2022/09/07 00:38:56;;;;;;;7.35;4.07;;;17.10;1.00;;;;;;5004828;28;20588;-60
2022/09/07 00:41:24;;;;;;;6.63;4.47;;;17.10;1.00;;;;;;4977288;28;20226;-60
2022/09/07 00:43:52;;;;;;;4.93;3.97;;;17.10;1.00;;;;;;5001677;28;21438;-60
2022/09/07 00:46:21;;;;;;;6.38;4.35;;;17.10;1.00;;;;;;4987770;28;20203;-60
2022/09/07 00:48:53;;;;;;;4.18;3.85;;;17.10;1.00;;;;;;5007797;28;20202;-60
2022/09/07 00:51:24;;;;;;;5.10;4.15;;;17.20;1.00;;;;;;4978396;28;20209;-60
2022/09/07 00:53:55;;;;;;;4.93;4.22;;;17.10;1.00;;;;;;5001792;28;20197;-60
2022/09/07 00:56:26;;;;;;;7.22;4.88;;;17.00;45.30;;;;;;4976795;28;26903;-61
2022/09/07 00:58:53;;;;;;;8.20;4.22;;;15.60;18.70;;;;;;5000652;28;20203;-60
2022/09/07 01:01:20;;;;;;;6.38;4.20;;;17.10;16.00;;;;;;4983929;28;20236;-60
2022/09/07 01:03:50;;;;;;;5.40;4.47;;;17.00;99.90;;;;;;5002889;28;20353;-61
2022/09/07 01:06:19;;;;;;;5.13;4.60;;;17.10;90.30;;;;;;4988974;28;21251;-60
2022/09/07 01:08:48;;;;;;;6.45;4.03;;;17.10;99.90;;;;;;4992358;28;20216;-61
2022/09/07 01:11:16;;;;;;;5.63;4.40;;;17.00;99.90;;;;;;5003526;28;20202;-60
2022/09/07 01:13:46;;;;;;;4.97;4.13;;;17.30;99.90;;;;;;4967261;28;20589;-60
2022/09/07 01:16:23;;;;;;;4.95;4.45;;;17.00;99.90;;;;;;4987792;28;20199;-60
2022/09/07 01:18:58;;;;;;;5.13;4.45;;;17.20;28.10;;;;;;4994292;28;20202;-61
2022/09/07 01:21:30;;;;;;;4.57;3.67;;;17.00;99.90;;;;;;4989507;28;20324;-60
2022/09/07 01:24:27;;;;;;;5.20;4.20;;;17.10;99.90;;;;;;4995464;28;20206;-60
2022/09/07 01:27:32;;;;;;;8.93;4.70;;;17.10;99.90;;;;;;4996288;28;20202;-61
2022/09/07 01:30:04;;;;;;;5.65;4.45;;;17.10;99.90;;;;;;4978772;28;20214;-60
2022/09/07 01:32:43;;;;;;;5.45;4.45;;;16.90;99.90;;;;;;4987466;28;20203;-61
2022/09/07 01:35:20;;;;;;;6.75;4.43;;;17.00;99.90;;;;;;4990415;28;20207;-61
2022/09/07 01:37:56;;;;;;;11.75;4.75;;;17.00;99.90;;;;;;4994945;28;20230;-60
2022/09/07 01:40:32;;;;;;;6.85;4.57;;;17.00;99.90;;;;;;4983387;28;20966;-61
2022/09/07 01:43:04;;;;;;;5.13;4.55;;;17.00;99.90;;;;;;5006928;28;20785;-60
2022/09/07 01:45:36;;;;;;;5.82;4.60;;;17.00;1.00;;;;;;4975225;28;20210;-60
2022/09/07 01:48:07;;;;;;;7.13;4.43;;;17.00;1.00;;;;;;4991103;28;20214;-61
2022/09/07 01:50:40;;;;;;;5.45;4.85;;;17.00;1.00;;;;;;5005788;28;20195;-61
2022/09/07 01:53:14;;;;;;;6.57;5.03;;;17.00;1.00;;;;;;4985087;28;20224;-61
2022/09/07 01:55:45;;;;;;;4.95;4.43;;;16.70;1.00;;;;;;4996162;28;20216;-61
2022/09/07 01:58:18;;;;;;;5.05;4.47;;;17.00;1.00;;;;;;4986170;28;20274;-61
2022/09/07 02:00:52;;;;;;;5.68;5.07;;;18.10;99.90;;;;;;4983025;28;20221;-61
2022/09/07 02:03:26;;;;;;;5.22;4.38;;;17.30;99.90;;;;;;4996539;28;20222;-60
2022/09/07 02:05:58;;;;;;;6.93;4.35;;;17.00;99.90;;;;;;5011365;28;20202;-60
2022/09/07 02:08:29;;;;;;;5.22;4.32;;;17.00;99.90;;;;;;4995421;28;20202;-61
2022/09/07 02:11:01;;;;;;;6.68;4.43;;;17.00;1.00;;;;;;5012093;28;20205;-60
2022/09/07 02:13:33;;;;;;;5.47;4.32;;;17.00;99.90;;;;;;4995768;28;20217;-60
2022/09/07 02:16:05;;;;;;;4.75;4.32;;;17.10;99.90;;;;;;4984681;28;20213;-60
2022/09/07 02:18:38;;;;;;;5.55;5.03;;;16.90;1.00;;;;;;5009660;28;20202;-61
2022/09/07 02:21:09;;;;;;;6.22;4.68;;;16.80;1.00;;;;;;5000076;28;20237;-61
2022/09/07 02:23:40;;;;;;;10.00;4.78;;;16.90;1.00;;;;;;5009079;28;20213;-60
2022/09/07 02:26:13;;;;;;;7.53;4.78;;;13.40;1.00;;;;;;4997691;28;20214;-59
2022/09/07 02:28:41;;;;;;;4.72;4.13;;;17.00;1.00;;;;;;4995174;28;20226;-60
2022/09/07 02:31:09;;;;;;;6.70;4.22;;;17.30;1.00;;;;;;4993144;28;20205;-61
2022/09/07 02:33:36;;;;;;;5.10;4.43;;;16.90;1.00;;;;;;5006603;28;20253;-61
2022/09/07 02:36:04;;;;;;;6.63;4.82;;;19.20;1.00;;;;;;4993661;28;20703;-60
2022/09/07 02:38:31;;;;;;;5.53;4.50;;;17.00;1.00;;;;;;5005726;28;20577;-61
2022/09/07 02:41:01;;;;;;;6.53;4.70;;;17.10;1.00;;;;;;4999412;28;20210;-60
2022/09/07 02:43:30;;;;;;;7.15;4.68;;;16.80;99.90;;;;;;4992823;28;21028;-60
2022/09/07 02:46:19;;;;;;;8.45;4.50;;;17.00;99.90;;;;;;5003081;28;20206;-60
2022/09/07 02:48:52;;;;;;;4.63;4.22;;;17.00;99.90;;;;;;5013776;28;20213;-61
2022/09/07 02:51:28;;;;;;;7.03;5.32;;;17.00;99.90;;;;;;4997083;28;20214;-61
2022/09/07 02:54:13;;;;;;;6.95;5.35;;;17.00;1.00;;;;;;5010125;28;20217;-60
2022/09/07 02:56:50;;;;;;;8.45;5.18;;;16.90;1.00;;;;;;4994717;28;20583;-61
2022/09/07 02:59:29;;;;;;;5.45;4.88;;;16.90;1.00;;;;;;4981748;28;20221;-61
2022/09/07 03:02:04;;;;;;;6.25;4.72;;;17.00;1.00;;;;;;4984289;28;20226;-61
2022/09/07 03:04:41;;;;;;;5.50;4.78;;;17.10;1.00;;;;;;4999739;28;20208;-60
2022/09/07 03:07:12;;;;;;;5.53;5.03;;;17.10;60.60;;;;;;4999098;28;20817;-60
2022/09/07 03:09:44;;;;;;;8.90;7.10;;;17.10;36.30;;;;;;5004593;28;20208;-60
2022/09/07 03:12:12;;;;;;;8.82;7.93;;;16.90;99.90;;;;;;4998671;28;20408;-60
2022/09/07 03:14:40;;;;;;;10.18;7.68;;;17.10;99.90;;;;;;4998627;28;20992;-61
2022/09/07 03:17:10;;;;;;;11.35;7.90;;;17.20;1.00;;;;;;4997982;28;20210;-60
2022/09/07 03:19:37;;;;;;;8.20;7.40;;;17.10;99.90;;;;;;4968398;28;20712;-60
2022/09/07 03:22:07;;;;;;;11.40;7.90;;;17.40;1.00;;;;;;5009063;28;20230;-61
2022/09/07 03:24:35;;;;;;;8.63;7.78;;;17.20;1.00;;;;;;4996478;28;20212;-61
2022/09/07 03:27:02;;;;;;;11.13;7.97;;;17.30;1.00;;;;;;5004925;28;20206;-61
2022/09/07 03:29:29;;;;;;;8.68;7.10;;;17.30;1.00;;;;;;4986069;28;20202;-61
2022/09/07 03:31:56;;;;;;;10.60;7.68;;;17.20;1.00;;;;;;4986213;28;22026;-61
2022/09/07 03:34:24;;;;;;;10.70;7.07;;;17.50;99.90;;;;;;4974034;28;20218;-60
2022/09/07 03:36:51;;;;;;;9.07;7.30;;;17.10;99.90;;;;;;4990622;28;20832;-61
2022/09/07 03:39:19;;;;;;;8.57;6.95;;;17.30;99.90;;;;;;4990330;28;20248;-61
2022/09/07 03:41:47;;;;;;;7.80;6.55;;;17.20;1.00;;;;;;5000699;28;20240;-61
2022/09/07 03:44:14;;;;;;;8.20;7.35;;;17.20;1.00;;;;;;4990029;28;20226;-60
2022/09/07 03:46:43;;;;;;;9.25;7.13;;;16.90;99.90;;;;;;4994344;28;20584;-60
2022/09/07 03:49:10;;;;;;;10.05;7.57;;;17.20;99.90;;;;;;4978573;28;20239;-60
2022/09/07 03:51:38;;;;;;;10.55;7.60;;;17.40;99.90;;;;;;4996409;28;20221;-61
2022/09/07 03:54:05;;;;;;;11.90;7.28;;;17.10;99.90;;;;;;4991571;28;20203;-61
2022/09/07 03:56:32;;;;;;;10.63;7.45;;;17.10;99.90;;;;;;5003655;28;20222;-61
2022/09/07 03:58:59;;;;;;;8.88;6.60;;;17.10;99.90;;;;;;4991749;28;20202;-61
2022/09/07 04:01:27;;;;;;;8.45;7.63;;;17.10;99.90;;;;;;4990896;28;20202;-60
2022/09/07 04:03:57;;;;;;;10.95;7.68;;;17.00;1.00;;;;;;4982304;28;20262;-61
2022/09/07 04:06:25;;;;;;;10.40;7.40;;;17.10;1.00;;;;;;4989133;28;20206;-60
2022/09/07 04:08:55;;;;;;;8.75;7.68;;;17.00;1.00;;;;;;4996544;28;20199;-61
2022/09/07 04:11:21;;;;;;;9.88;6.65;;;17.00;1.00;;;;;;4995365;28;20378;-60
2022/09/07 04:13:49;;;;;;;11.50;7.25;;;17.90;1.00;;;;;;4983535;28;20206;-61
2022/09/07 04:16:18;;;;;;;12.57;7.18;;;17.20;1.00;;;;;;4990416;28;20210;-61
2022/09/07 04:18:45;;;;;;;8.32;7.03;;;17.00;1.00;;;;;;4983304;28;20243;-61
2022/09/07 04:21:13;;;;;;;8.57;6.45;;;17.10;1.00;;;;;;4977765;28;20209;-62
2022/09/07 04:23:40;;;;;;;8.52;7.25;;;17.00;1.00;;;;;;4991619;28;20229;-61
2022/09/07 04:26:13;;;;;;;11.57;7.22;;;17.00;1.00;;;;;;4996932;28;20216;-61
2022/09/07 04:28:40;;;;;;;9.57;7.35;;;16.90;1.00;;;;;;4997592;28;20638;-62
2022/09/07 04:31:07;;;;;;;7.60;6.85;;;16.90;1.00;;;;;;4985224;28;20209;-61
2022/09/07 04:33:34;;;;;;;7.90;6.55;;;16.90;1.00;;;;;;4992644;28;20206;-62
2022/09/07 04:36:01;;;;;;;9.60;7.95;;;16.90;1.00;;;;;;4981302;28;20245;-61
2022/09/07 04:38:29;;;;;;;13.15;8.57;;;15.10;1.00;;;;;;4987669;28;20202;-62
2022/09/07 04:41:00;;;;;;;13.80;7.63;;;16.90;1.00;;;;;;4993270;28;20205;-62
2022/09/07 04:43:29;;;;;;;17.50;8.13;;;16.90;1.00;;;;;;4996600;28;20245;-62
2022/09/07 04:45:56;;;;;;;9.68;7.70;;;16.90;1.00;;;;;;4994674;28;20213;-62
2022/09/07 04:48:23;;;;;;;11.23;7.30;;;17.00;1.90;;;;;;4993866;28;20229;-62
2022/09/07 04:50:50;;;;;;;8.45;7.13;;;17.00;8.00;;;;;;4998927;28;20212;-62
2022/09/07 04:53:17;;;;;;;13.32;7.30;;;16.80;6.10;;;;;;4976904;28;20250;-62
2022/09/07 04:55:44;;;;;;;10.20;7.50;;;16.70;18.90;;;;;;4994973;28;20289;-63
2022/09/07 04:58:11;;;;;;;9.65;7.40;;;16.80;19.10;;;;;;4991610;28;20578;-62
2022/09/07 05:00:39;;;;;;;10.23;7.03;;;16.80;23.40;;;;;;5004764;28;20226;-63
2022/09/07 05:03:06;;;;;;;8.65;7.20;;;16.70;23.90;;;;;;4988142;28;20329;-62
2022/09/07 05:05:36;;;;;;;8.13;6.85;;;16.70;25.40;;;;;;4995009;28;20221;-63
2022/09/07 05:08:03;;;;;;;11.07;7.10;;;16.70;29.10;;;;;;4956141;28;20226;-62
2022/09/07 05:10:30;;;;;;;8.25;7.05;;;16.70;27.50;;;;;;4996922;28;20218;-62
2022/09/07 05:12:57;;;;;;;8.35;7.03;;;16.90;28.80;;;;;;4980118;28;20822;-63
2022/09/07 05:15:24;;;;;;;12.05;6.95;;;16.60;27.00;;;;;;4991106;28;20268;-63
2022/09/07 05:17:53;;;;;;;10.13;6.90;;;16.70;25.20;;;;;;4979796;28;20229;-63
2022/09/07 05:20:20;;;;;;;7.65;6.75;;;16.80;28.10;;;;;;4982167;28;20276;-62
2022/09/07 05:22:47;;;;;;;12.20;7.20;;;17.00;27.60;;;;;;4976473;28;20237;-63
2022/09/07 05:25:14;;;;;;;8.73;7.38;;;16.70;30.60;;;;;;4990205;28;20248;-63
2022/09/07 05:27:41;;;;;;;10.48;7.07;;;16.60;30.20;;;;;;4987126;28;20210;-62
2022/09/07 05:30:09;;;;;;;9.05;7.47;;;16.60;35.80;;;;;;4991201;28;20276;-63
2022/09/07 05:32:36;;;;;;;8.63;6.90;;;16.50;39.40;;;;;;4991209;28;20209;-63
2022/09/07 05:35:05;;;;;;;8.07;7.28;;;16.70;37.80;;;;;;4988160;28;20719;-63
2022/09/07 05:37:32;;;;;;;8.80;7.53;;;16.70;49.70;;;;;;4987487;28;20268;-63
2022/09/07 05:39:59;;;;;;;8.18;7.38;;;16.70;48.60;;;;;;5008000;28;20199;-63
2022/09/07 05:42:25;;;;;;;10.80;7.95;;;18.30;58.70;;;;;;5010499;28;20885;-65
2022/09/07 05:44:53;;;;;;;7.75;7.05;;;16.70;56.00;;;;;;5001605;28;20249;-63
2022/09/07 05:47:20;;;;;;;10.77;8.00;;;16.70;57.20;;;;;;5009241;28;20300;-62
2022/09/07 05:49:47;;;;;;;9.52;7.38;;;16.50;62.40;;;;;;4987962;28;20363;-63
2022/09/07 05:52:15;;;;;;;8.48;7.30;;;16.80;64.10;;;;;;4994986;28;20226;-63
2022/09/07 05:54:42;;;;;;;8.48;7.47;;;16.70;61.60;;;;;;4973715;28;20237;-62
2022/09/07 05:57:11;;;;;;;8.48;7.55;;;16.70;71.00;;;;;;5002098;28;20214;-63
2022/09/07 05:59:38;;;;;;;8.73;7.85;;;16.80;68.10;;;;;;5003411;28;20210;-63
2022/09/07 06:02:06;;;;;;;8.95;7.57;;;16.70;70.20;;;;;;4995234;28;20210;-63
2022/09/07 06:04:33;;;;;;;10.55;7.45;;;16.80;71.30;;;;;;5001241;28;20336;-63
2022/09/07 06:06:59;;;;;;;8.85;7.95;;;16.80;73.20;;;;;;4991310;28;20214;-62
2022/09/07 06:09:28;;;;;;;8.30;7.47;;;16.70;71.20;;;;;;4985828;28;20217;-62
2022/09/07 06:11:54;;;;;;;9.30;8.10;;;16.90;78.00;;;;;;5008735;28;20209;-62
2022/09/07 06:14:21;;;;;;;10.18;7.90;;;16.70;75.10;;;;;;5004403;28;20209;-63
2022/09/07 06:16:48;;;;;;;9.18;8.18;;;16.80;76.70;;;;;;5009573;28;20206;-62
2022/09/07 06:19:15;;;;;;;10.50;7.75;;;18.40;80.20;;;;;;4997172;28;21051;-63
2022/09/07 06:21:42;;;;;;;10.40;8.20;;;16.80;74.60;;;;;;4989938;28;20216;-63
2022/09/07 06:24:09;;;;;;;9.65;8.50;;;17.10;77.90;;;;;;4985463;28;20249;-63
2022/09/07 06:26:37;;;;;;;9.68;8.07;;;16.70;76.30;;;;;;5005629;28;20198;-63
2022/09/07 06:29:04;;;;;;;8.48;7.65;;;16.80;78.20;;;;;;5003327;28;20202;-63
2022/09/07 06:31:31;;;;;;;9.55;8.00;;;16.80;81.80;;;;;;5010541;28;20205;-63
2022/09/07 06:33:58;;;;;;;13.13;8.45;;;16.80;83.70;;;;;;4990103;28;20207;-62
2022/09/07 06:36:27;;;;;;;10.93;8.73;;;16.80;85.30;;;;;;4999855;28;20230;-62
2022/09/07 06:38:55;;;;;;;12.18;9.00;;;16.60;88.50;;;;;;4985589;28;20713;-63
2022/09/07 06:41:24;;;;;;;9.85;8.88;;;16.80;87.50;;;;;;5004770;28;20268;-63
2022/09/07 06:43:54;;;;;;;9.45;8.48;;;16.90;88.40;;;;;;5012516;28;20229;-63
2022/09/07 06:46:21;;;;;;;12.43;8.50;;;16.00;85.90;;;;;;5014450;28;20210;-63
2022/09/07 06:48:48;;;;;;;10.85;9.00;;;17.10;89.90;;;;;;5012288;28;20248;-63
2022/09/07 06:51:17;;;;;;;10.00;8.10;;;16.90;88.00;;;;;;4998999;28;20291;-63
2022/09/07 06:53:45;;;;;;;10.57;8.73;;;17.00;90.70;;;;;;5002753;28;20199;-63
2022/09/07 06:56:14;;;;;;;10.95;8.60;;;17.10;90.00;;;;;;4985643;28;20210;-62
2022/09/07 06:58:41;;;;;;;11.95;9.68;;;17.10;89.90;;;;;;4996675;28;21051;-62
2022/09/07 07:01:12;;;;;;;11.50;10.30;;;17.20;90.20;;;;;;5005656;28;20229;-62
2022/09/07 07:03:40;;;;;;;13.70;10.02;;;17.20;90.30;;;;;;5013183;28;20230;-63
2022/09/07 07:06:07;;;;;;;13.82;10.68;;;17.30;91.40;;;;;;4997062;28;20589;-63
2022/09/07 07:08:34;;;;;;;11.02;9.77;;;17.20;90.40;;;;;;5010987;28;20292;-63
2022/09/07 07:11:02;;;;;;;11.63;10.20;;;17.20;91.50;;;;;;4973896;28;20230;-62
2022/09/07 07:13:29;;;;;;;11.60;9.68;;;17.30;90.90;;;;;;4999175;28;20213;-62
2022/09/07 07:16:02;;;;;;;14.18;10.50;;;17.30;91.00;;;;;;5008322;28;20209;-62
2022/09/07 07:18:30;;;;;;;13.93;9.20;;;17.30;91.40;;;;;;4995479;28;20222;-62
2022/09/07 07:20:57;;;;;;;9.93;8.93;;;17.40;91.30;;;;;;5000836;28;20222;-62
2022/09/07 07:23:24;;;;;;;9.93;8.93;;;17.40;91.50;;;;;;5008891;28;20245;-62
2022/09/07 07:25:50;;;;;;;12.55;9.15;;;17.70;92.50;;;;;;4977952;28;20232;-63
2022/09/07 07:28:17;;;;;;;11.63;8.93;;;17.50;92.40;;;;;;4994783;28;20603;-63
2022/09/07 07:30:44;;;;;;;12.30;9.57;;;17.50;92.00;;;;;;5001891;28;20241;-62
2022/09/07 07:33:11;;;;;;;10.50;9.43;;;;;;;;;;4997547;28;20237;-62
2022/09/07 07:35:40;;;;;;;14.35;9.13;;;17.60;92.10;;;;;;4987491;28;20784;-63
2022/09/07 07:38:06;;;;;;;10.63;9.48;;;17.50;92.60;;;;;;5004814;28;20715;-63
2022/09/07 07:40:33;;;;;;;16.35;10.10;;;17.70;92.50;;;;;;5003467;28;20305;-63
2022/09/07 07:43:00;;;;;;;11.68;10.15;;;17.70;93.00;;;;;;4989451;28;20230;-63
2022/09/07 07:45:27;;;;;;;11.00;9.70;;;17.70;92.50;;;;;;5009246;28;20202;-63
2022/09/07 07:47:54;;;;;;;12.10;9.60;;;;;;;;;;5012695;28;20191;-63
2022/09/07 07:50:21;;;;;;;11.48;9.82;;;17.80;93.00;;;;;;5000217;28;20992;-62
2022/09/07 07:52:49;;;;;;;10.70;9.60;;;18.10;94.10;;;;;;5003102;28;20205;-63
2022/09/07 07:55:16;;;;;;;10.65;9.65;;;17.90;93.50;;;;;;5009906;28;20204;-63
2022/09/07 07:57:43;;;;;;;11.68;10.50;;;18.20;94.70;;;;;;4984504;28;22331;-63
2022/09/07 08:00:13;;;;;;;12.45;10.20;;;18.00;94.00;;;;;;5012547;28;20217;-63
2022/09/07 08:02:40;;;;;;;14.02;10.10;;;18.10;93.50;;;;;;5008497;28;20212;-63
2022/09/07 08:05:07;;;;;;;11.70;9.88;;;18.10;93.80;;;;;;5013091;28;20285;-63
2022/09/07 08:07:34;;;;;;;12.23;10.65;;;18.20;94.10;;;;;;5002775;28;20753;-62
2022/09/07 08:10:02;;;;;;;13.60;10.20;;;18.30;94.40;;;;;;5011193;28;20206;-63
2022/09/07 08:12:30;;;;;;;12.38;10.50;;;18.30;93.50;;;;;;4995589;28;20225;-63
2022/09/07 08:14:57;;;;;;;12.32;10.10;;;18.40;93.40;;;;;;4976781;28;20233;-63
2022/09/07 08:17:24;;;;;;;11.45;10.35;;;18.60;94.10;;;;;;4983737;28;22717;-62
2022/09/07 08:19:51;;;;;;;13.15;11.45;;;18.50;93.50;;;;;;5008849;28;20595;-63
2022/09/07 08:22:17;;;;;;;10.85;9.75;;;18.60;94.00;;;;;;4998390;28;23105;-63
2022/09/07 08:24:44;;;;;;;11.48;10.38;;;18.80;93.80;;;;;;4994956;28;20232;-63
2022/09/07 08:27:12;;;;;;;11.57;10.48;;;20.10;94.80;;;;;;5006199;28;20210;-63
2022/09/07 08:29:39;;;;;;;11.32;10.00;;;18.80;91.70;;;;;;4976513;28;20240;-62
2022/09/07 08:32:06;;;;;;;11.13;9.48;;;18.90;91.20;;;;;;4993716;28;20264;-62
2022/09/07 08:34:35;;;;;;;11.00;9.90;;;19.00;91.30;;;;;;5005291;28;20225;-63
2022/09/07 08:37:02;;;;;;;12.73;10.15;;;19.00;90.80;;;;;;5003236;28;20407;-62
2022/09/07 08:39:30;;;;;;;11.63;9.65;;;;;;;;;;5003813;28;20311;-62
2022/09/07 08:42:29;;;;;;;10.73;9.60;;;19.10;90.20;;;;;;5007675;28;20205;-63
2022/09/07 08:45:05;;;;;;;11.52;10.23;;;19.10;89.90;;;;;;4982703;28;20223;-63
2022/09/07 08:47:38;;;;;;;10.55;9.55;;;19.40;85.60;;;;;;5002234;28;20254;-62
2022/09/07 08:50:11;;;;;;;10.77;9.75;;;19.30;85.80;;;;;;4982791;28;20233;-63
2022/09/07 08:52:46;;;;;;;10.93;8.70;;;19.30;84.60;;;;;;5005333;28;20262;-63
2022/09/07 08:55:17;;;;;;;10.85;8.82;;;19.30;84.30;;;;;;4996142;28;20311;-62
2022/09/07 08:57:50;;;;;;;9.98;8.50;;;19.50;85.00;;;;;;5007272;28;20206;-63
2022/09/07 09:00:19;;;;;;;9.32;8.43;;;19.40;83.70;;;;;;4980555;28;20222;-64
2022/09/07 09:02:46;;;;;;;9.40;8.50;;;19.40;83.30;;;;;;5008114;28;20194;-62
2022/09/07 09:05:26;;;;;;;9.80;8.80;;;19.50;83.20;;;;;;4989444;28;20229;-63
2022/09/07 09:08:06;;;;;;;10.00;9.00;;;19.60;80.80;;;;;;5010093;28;20591;-63
2022/09/07 09:10:40;;;;;;;9.50;8.52;;;19.50;76.70;;;;;;5004414;28;20230;-63
2022/09/07 09:13:17;;;;;;;9.20;8.30;;;19.60;76.80;;;;;;5005191;28;20224;-63
2022/09/07 09:15:55;;;;;;;8.98;7.82;;;19.60;73.10;;;;;;5011111;28;20201;-62
2022/09/07 09:18:33;;;;;;;9.32;8.43;;;19.60;69.30;;;;;;4983505;28;20225;-63
2022/09/07 09:21:00;;;;;;;9.40;7.47;;;19.60;66.80;;;;;;5002832;28;20629;-63
2022/09/07 09:23:34;;;;;;;9.43;7.38;;;19.60;63.70;;;;;;5003909;28;20247;-64
2022/09/07 09:26:05;;;;;;;10.32;7.68;;;19.70;63.90;;;;;;4998641;28;20202;-63
2022/09/07 09:28:33;;;;;;;7.85;7.05;;;;;;;;;;5009683;28;20202;-63
2022/09/07 09:31:01;;;;;;;9.85;8.07;;;19.80;60.00;;;;;;5010638;28;20213;-63
2022/09/07 09:33:29;;;;;;;8.73;7.80;;;19.60;62.50;;;;;;4989276;28;20214;-63
2022/09/07 09:35:59;;;;;;;7.95;7.03;;;19.90;62.40;;;;;;4997892;28;20207;-63
2022/09/07 09:38:31;;;;;;;7.97;7.20;;;20.20;68.70;;;;;;5012412;28;20199;-63
2022/09/07 09:41:02;;;;;;;11.23;6.72;;;20.00;66.00;;;;;;4991728;28;20211;-63
2022/09/07 09:43:36;;;;;;;7.63;6.65;;;20.00;65.10;;;;;;5011270;28;20218;-63
2022/09/07 09:46:19;;;;;;;8.43;7.50;;;20.20;64.00;;;;;;5007865;28;20691;-64
2022/09/07 09:48:53;;;;;;;10.02;7.13;;;20.20;64.60;;;;;;4988824;28;20248;-64
2022/09/07 09:51:21;;;;;;;8.90;6.65;;;20.10;58.40;;;;;;4996538;28;20221;-63
2022/09/07 09:53:56;;;;;;;9.05;7.95;;;20.40;56.30;;;;;;5011006;28;20206;-62
2022/09/07 09:56:35;;;;;;;7.93;7.22;;;20.30;56.10;;;;;;4991991;28;20225;-63
2022/09/07 09:59:12;;;;;;;8.40;6.00;;;20.30;55.10;;;;;;5006740;28;20237;-63
2022/09/07 10:01:41;;;;;;;6.65;5.97;;;20.50;54.90;;;;;;5010791;28;20210;-64
2022/09/07 10:04:29;;;;;;;5.93;5.30;;;20.60;50.40;;;;;;4983725;28;20578;-64
2022/09/07 10:06:57;;;;;;;7.80;5.38;;;20.60;47.70;;;;;;4989208;28;20788;-62
2022/09/07 10:09:30;;;;;;;11.82;6.55;;;20.70;46.20;;;;;;4995668;28;21029;-63
2022/09/07 10:11:59;;;;;;;7.20;5.40;;;20.60;37.80;;;;;;5004388;28;20202;-62
2022/09/07 10:14:29;;;;;;;5.00;4.60;;;20.70;35.80;;;;;;5010134;28;20229;-64
2022/09/07 10:16:58;;;;;;;6.00;5.40;;;20.70;32.40;;;;;;5010775;28;20791;-64
2022/09/07 10:19:34;;;;;;;7.30;5.15;;;20.70;25.70;;;;;;4984553;28;20213;-63
2022/09/07 10:22:02;;;;;;;7.60;5.43;;;20.80;22.10;;;;;;5002035;28;20675;-63
2022/09/07 10:24:36;;;;;;;6.68;5.80;;;21.10;20.40;;;;;;4997518;28;20738;-62
2022/09/07 10:27:19;;;;;;;5.30;4.60;;;20.90;20.30;;;;;;5006239;28;20206;-62
2022/09/07 10:29:46;;;;;;;4.63;4.07;;;21.00;19.80;;;;;;5011292;28;20201;-63
2022/09/07 10:32:33;;;;;;;5.43;4.45;;;21.00;9.80;;;;;;4999027;28;20197;-64
2022/09/07 10:35:09;;;;;;;5.07;4.05;;;21.00;6.60;;;;;;4987632;28;20739;-62
2022/09/07 10:37:45;;;;;;;6.43;4.22;;;21.00;1.30;;;;;;5002381;28;20241;-62
2022/09/07 10:40:29;;;;;;;4.88;4.38;;;21.00;1.00;;;;;;4998598;28;21358;-62
2022/09/07 10:43:05;;;;;;;8.60;4.88;;;21.00;1.00;;;;;;5011166;28;20194;-64
2022/09/07 10:45:41;;;;;;;5.88;5.28;;;21.10;2.60;;;;;;5008056;28;20264;-64
2022/09/07 10:48:19;;;;;;;5.53;4.90;;;21.20;7.70;;;;;;5008428;28;20202;-63
2022/09/07 10:50:49;;;;;;;5.88;5.15;;;21.40;4.20;;;;;;4985691;28;20215;-63
2022/09/07 10:53:36;;;;;;;6.32;5.35;;;21.30;1.30;;;;;;4991647;28;20210;-63
2022/09/07 10:56:08;;;;;;;5.18;4.68;;;21.30;1.00;;;;;;5001298;28;20206;-64
2022/09/07 10:58:47;;;;;;;9.85;4.95;;;21.40;1.00;;;;;;4999123;28;20213;-64
2022/09/07 11:01:24;;;;;;;5.03;3.90;;;21.50;1.00;;;;;;5008316;28;20226;-63
2022/09/07 11:04:20;;;;;;;4.72;3.80;;;21.50;1.00;;;;;;5011765;28;20201;-63
2022/09/07 11:06:51;;;;;;;7.43;4.22;;;21.90;1.00;;;;;;4981598;28;20230;-63
2022/09/07 11:09:38;;;;;;;6.80;4.35;;;21.60;1.00;;;;;;5001148;28;20210;-63
2022/09/07 11:12:09;;;;;;;7.15;4.28;;;21.50;1.00;;;;;;4999564;28;20209;-64
2022/09/07 11:14:42;;;;;;;7.88;4.80;;;23.00;1.00;;;;;;5009323;28;20692;-63
2022/09/07 11:17:15;;;;;;;6.10;5.28;;;21.60;1.00;;;;;;5009074;28;20202;-63
2022/09/07 11:19:49;;;;;;;7.40;5.35;;;21.60;1.00;;;;;;5005580;28;21512;-64
2022/09/07 11:22:26;;;;;;;5.78;4.93;;;21.60;1.00;;;;;;4983826;28;20212;-61
2022/09/07 11:24:59;;;;;;;5.57;5.05;;;21.50;1.00;;;;;;4990154;28;20327;-64
2022/09/07 11:27:29;;;;;;;8.88;4.95;;;21.50;1.00;;;;;;4994755;28;20935;-64
2022/09/07 11:30:03;;;;;;;4.78;4.03;;;21.50;1.00;;;;;;5011707;28;20198;-63
2022/09/07 11:32:34;;;;;;;6.43;3.90;;;21.40;1.00;;;;;;4997491;28;21218;-63
2022/09/07 11:35:06;;;;;;;4.35;3.72;;;21.40;1.00;;;;;;5009055;28;20198;-63
2022/09/07 11:37:42;;;;;;;5.03;3.97;;;21.50;1.00;;;;;;4980867;28;20237;-64
2022/09/07 11:40:20;;;;;;;4.63;4.20;;;21.50;1.00;;;;;;4995548;28;20233;-63
2022/09/07 11:42:52;;;;;;;4.95;4.45;;;21.60;1.00;;;;;;5000175;28;20320;-63
2022/09/07 11:45:23;;;;;;;5.47;4.03;;;21.70;1.00;;;;;;5006507;28;20237;-63
2022/09/07 11:47:55;;;;;;;4.25;3.72;;;21.80;99.90;;;;;;5005490;28;20198;-61
2022/09/07 11:50:24;;;;;;;5.65;4.10;;;21.90;99.90;;;;;;5006006;28;20234;-62
2022/09/07 11:52:56;;;;;;;5.13;4.70;;;22.00;99.90;;;;;;4985922;28;20217;-63
2022/09/07 11:55:27;;;;;;;5.68;4.32;;;21.90;99.90;;;;;;4989529;28;20217;-64
2022/09/07 11:58:23;;;;;;;5.03;4.53;;;22.00;1.00;;;;;;4991973;28;20218;-63
2022/09/07 12:01:01;;;;;;;5.78;4.63;;;22.20;1.00;;;;;;4964119;28;20202;-63
2022/09/07 12:03:56;;;;;;;7.85;4.93;;;22.10;1.00;;;;;;4975814;28;20226;-63
2022/09/07 12:06:54;;;;;;;5.22;4.72;;;22.40;37.80;;;;;;4987267;28;20416;-63
2022/09/07 12:09:40;;;;;;;4.93;4.35;;;22.30;1.00;;;;;;4968019;28;20226;-63
2022/09/07 12:12:20;;;;;;;7.63;4.65;;;22.40;1.00;;;;;;4995020;28;20207;-63
2022/09/07 12:14:57;;;;;;;5.03;4.53;;;22.30;1.00;;;;;;4996080;28;20228;-63
2022/09/07 12:17:40;;;;;;;7.63;5.38;;;22.30;1.00;;;;;;4986082;28;20218;-63
2022/09/07 12:20:13;;;;;;;7.45;5.05;;;22.30;1.00;;;;;;4990026;28;20226;-63
2022/09/07 12:22:56;;;;;;;7.35;4.85;;;22.30;1.00;;;;;;4996715;28;20232;-63
2022/09/07 12:25:24;;;;;;;7.15;6.22;;;22.40;99.90;;;;;;4962697;28;23221;-64
2022/09/07 12:27:52;;;;;;;7.55;6.82;;;22.40;99.90;;;;;;5006579;28;20312;-63
2022/09/07 12:30:55;;;;;;;6.47;5.80;;;22.40;99.90;;;;;;4998185;28;20224;-63
2022/09/07 12:33:33;;;;;;;9.38;7.00;;;22.40;99.90;;;;;;4988096;28;20225;-63
2022/09/07 12:36:01;;;;;;;8.43;7.63;;;22.10;99.90;;;;;;4989525;28;20430;-63
2022/09/07 12:39:06;;;;;;;9.77;6.78;;;22.30;1.00;;;;;;4994598;28;20208;-63
2022/09/07 12:41:45;;;;;;;8.32;6.72;;;22.40;1.00;;;;;;4962185;28;20229;-63
2022/09/07 12:44:17;;;;;;;7.82;7.03;;;22.40;1.00;;;;;;5000685;28;20295;-63
2022/09/07 12:46:50;;;;;;;9.50;7.32;;;22.50;1.00;;;;;;4967119;28;20234;-63
2022/09/07 12:49:44;;;;;;;7.97;7.28;;;22.30;1.00;;;;;;4991575;28;20218;-63
2022/09/07 12:52:40;;;;;;;8.90;6.55;;;22.40;1.00;;;;;;4976736;28;20324;-62
2022/09/07 12:55:29;;;;;;;8.68;6.80;;;22.30;1.00;;;;;;4992700;28;20207;-63
2022/09/07 12:58:07;;;;;;;7.40;6.70;;;22.30;1.00;;;;;;4965077;28;20704;-63
2022/09/07 13:00:47;;;;;;;7.45;6.68;;;22.20;1.00;;;;;;4998660;28;20296;-63
2022/09/07 13:03:37;;;;;;;9.07;6.60;;;22.40;1.00;;;;;;4980587;28;20217;-63
2022/09/07 13:06:14;;;;;;;8.68;6.10;;;22.40;1.00;;;;;;4950346;28;20230;-63
2022/09/07 13:09:09;;;;;;;8.02;6.85;;;22.50;1.00;;;;;;4990213;28;20201;-62
2022/09/07 13:11:39;;;;;;;6.38;5.78;;;22.40;1.00;;;;;;4964380;28;20565;-62